Milford, Utah Weather observations

Data are for observation ending at time listed.
 Day   Time    Ave.   Ave.  Ave.  Vector   Max.   Stn.    Total    Solar   Ave.  
  of    of     Air    Rel.  Wind   Wind    Wind   Baro.  Precip.   Rad.    Soil  
Year   Day     Temp.  Hum.  Speed  Dir.    Gust   Pres.                    Temp. 
2020   (MST)    F      %     mph   deg.    mph     mb.     in.     W/m2     F   
------------------------------------------------------------------------------
 266   17:30   77.3    27    1.1   327      2.9   848.6    0.00      29    70.9
 266   17:40   76.3    29    1.1   243      3.0   848.8    0.00      29    70.9
 266   17:50   75.3    31    1.9   186      5.4   849.0    0.00      55    70.7
 266   18:00   78.0    23    2.6   153      7.1   848.7    0.00      61    71.0
 266   18:10   78.0    24    2.3   186      5.8   848.9    0.00      50    71.0
 266   18:20   76.9    26    2.7   175      6.2   848.9    0.00      25    71.0
 266   18:30   75.3    28    1.6   202      3.5   848.9    0.00       8    71.1
 266   18:40   73.9    30    0.9   236      2.0   848.9    0.00       1    71.2
 266   18:50   73.0    30    0.8   209      2.0   848.9    0.00       0    71.0
 266   19:00   72.2    30    0.4   209      1.6   848.8    0.00       0    71.1
 266   19:10   71.2    32    0.1   220      0.7   848.9    0.00       0    71.1
 266   19:20   69.7    36    0.7   196      1.8   848.9    0.00       0    71.1
 266   19:30   68.4    37    0.6   194      1.6   848.9    0.00       0    71.1
 266   19:40   67.6    35    1.1   200      3.0   848.9    0.00       0    71.1
 266   19:50   67.0    34    0.8   216      2.3   848.9    0.00       0    71.1
 266   20:00   66.7    34    1.0   205      3.0   848.9    0.00       0    71.2
 266   20:10   66.4    34    1.9   188      4.1   848.9    0.00       0    71.3
 266   20:20   66.4    33    1.7   198      3.1   848.9    0.00       0    71.1
 266   20:30   66.6    32    2.3   190      5.8   848.9    0.00       0    71.1
 266   20:40   67.0    31    2.8   193      5.7   849.0    0.00       0    71.0
 266   20:50   67.1    30    2.4   193      7.2   849.1    0.00       0    70.9
 266   21:00   67.0    30    2.8   188      6.7   849.2    0.00       0    70.9
 266   21:10   66.7    30    2.8   195      7.2   849.3    0.00       0    71.0
 266   21:20   67.2    29    3.2   187      6.9   849.4    0.00       0    70.9
 266   21:30   67.5    29    3.7   187      9.3   849.4    0.00       0    71.3
 266   21:40   67.2    29    3.1   191      5.6   849.5    0.00       0    71.0
 266   21:50   66.9    30    3.9   185      7.0   849.6    0.00       0    70.7
 266   22:00   66.1    31    3.3   192      5.4   849.6    0.00       0    71.0
 266   22:10   65.7    31    3.4   187      8.7   849.6    0.00       0    70.7
 266   22:20   66.1    30    3.1   190      6.4   849.6    0.00       0    70.7
 266   22:30   65.5    31    3.1   189      7.5   849.7    0.00       0    70.7
 266   22:40   65.1    31    3.3   188      5.6   849.8    0.00       0    70.7
 266   22:50   64.1    32    2.4   195      5.8   849.8    0.00       0    70.4
 266   23:00   63.7    33    2.5   193      4.7   849.8    0.00       0    70.7
 266   23:10   63.8    32    2.6   198      4.8   849.8    0.00       0    70.4
 266   23:20   63.4    34    2.3   197      5.0   849.7    0.00       0    70.6
 266   23:30   62.8    35    2.2   199      5.6   849.6    0.00       0    70.5
 266   23:40   62.2    36    2.2   200      4.8   849.5    0.00       0    70.0
 266   23:50   61.9    36    2.2   203      4.5   849.5    0.00       0    70.4
 267    0:00   61.9    36    2.2   203      5.0   849.5    0.00       0    70.2
 267    0:10   61.9    35    2.3   208      4.5   849.5    0.00       0    70.3
 267    0:20   61.7    34    2.1   216      7.3   849.5    0.00       0    70.1
 267    0:30   61.7    34    2.2   222      4.9   849.5    0.00       0    70.2
 267    0:40   61.6    35    2.2   214      6.1   849.5    0.00       0    70.1
 267    0:50   62.0    34    2.2   225      5.7   849.5    0.00       0    70.1
 267    1:00   62.1    34    2.2   212      4.7   849.6    0.00       0    70.1
 267    1:10   62.6    33    2.4   229      7.2   849.7    0.00       0    69.9
 267    1:20   62.6    33    2.1   222      4.7   849.8    0.00       0    69.9
 267    1:30   62.2    34    2.2   233      5.6   849.9    0.00       0    69.8
 267    1:40   61.6    34    2.1   242      4.7   849.9    0.00       0    69.5
 267    1:50   61.5    35    1.7   233      3.7   849.9    0.00       0    69.8
 267    2:00   61.8    34    2.4   237      6.1   849.9    0.00       0    69.5
 267    2:10   60.9    36    2.1   233      5.9   849.9    0.00       0    69.7
 267    2:20   60.3    37    2.4   236      4.2   849.9    0.00       0    69.4
 267    2:30   60.2    38    1.9   239      4.1   849.9    0.00       0    69.1
 267    2:40   59.7    39    0.9   223      3.1   849.9    0.00       0    69.6
 267    2:50   59.4    39    1.8   238      5.0   849.8    0.00       0    69.5
 267    3:00   59.3    40    1.3   238      3.1   849.8    0.00       0    69.3
 267    3:10   59.1    41    0.8   247      3.0   849.9    0.00       0    69.3
 267    3:20   57.5    42    2.2    21      5.1   850.0    0.00       0    69.4
 267    3:30   55.5    45    0.6    31      2.4   850.1    0.00       0    69.3
 267    3:40   54.4    47    0.1   268      1.0   850.0    0.00       0    69.0
 267    3:50   53.3    49    1.0   212      2.5   850.0    0.00       0    69.1
 267    4:00   53.8    48    1.4     7      2.7   850.0    0.00       0    69.0
 267    4:10   53.4    50    1.0   214      1.8   850.0    0.00       0    68.6
 267    4:20   53.5    50    1.5   209      3.0   850.0    0.00       0    69.1
 267    4:30   53.5    50    1.8   203      3.4   850.0    0.00       0    68.6
 267    4:40   53.7    50    2.1   191      3.7   850.0    0.00       0    68.7
 267    4:50   53.8    51    2.0   193      3.4   850.1    0.00       0    68.7
 267    5:00   54.0    50    2.0   199      4.2   850.1    0.00       0    68.5
 267    5:10   54.0    50    2.6   198      4.2   850.1    0.00       0    68.8
 267    5:20   54.1    50    2.6   207      5.6   850.1    0.00       0    68.6
 267    5:30   54.0    51    2.5   214      5.0   850.2    0.00       0    68.5
 267    5:40   53.2    52    2.2   208      7.5   850.3    0.00       0    68.5
 267    5:50   53.0    51    2.3   173      4.8   850.5    0.00       0    68.4
 267    6:00   51.7    52    1.1   144      2.8   850.6    0.00       0    68.4
 267    6:10   49.3    58    1.5    26      2.5   850.6    0.00       0    68.4
 267    6:20   48.1    61    1.0   206      2.4   850.5    0.00       2    68.1
 267    6:30   47.6    58    1.3   208      2.0   850.5    0.00       5    68.7
 267    6:40   47.7    57    1.6   179      3.3   850.4    0.00      12    68.1
 267    6:50   47.6    57    1.2   200      1.9   850.4    0.00      20    68.2
 267    7:00   48.0    55    1.5   213      4.4   850.4    0.00      34    68.1
 267    7:10   48.2    52    1.8   199      3.6   850.5    0.00      76    68.0
 267    7:20   48.3    52    2.0   188      3.9   850.5    0.00     119    67.9
 267    7:30   48.9    52    2.3   178      3.9   850.6    0.00     150    68.0
 267    7:40   49.9    51    2.2   180      3.9   850.8    0.00     181    67.9
 267    7:50   51.9    51    2.1   177      4.0   850.9    0.00     212    67.5
 267    8:00   54.9    50    2.1   180      4.8   851.0    0.00     244    67.6
 267    8:10   57.9    46    2.4   187      5.0   851.3    0.00     277    67.5
 267    8:20   60.9    42    1.9   172      3.7   851.6    0.00     309    67.5
 267    8:30   64.0    39    1.9   205      4.1   851.9    0.00     341    67.3
 267    8:40   65.3    38    2.1   206      4.3   852.2    0.00     371    67.5
 267    8:50   67.7    35    2.5   190      6.1   852.4    0.00     401    67.2
 267    9:00   69.6    32    2.5   204      5.6   852.7    0.00     430    67.4
 267    9:10   71.6    29    3.3   177      9.2   853.0    0.00     455    67.2
 267    9:20   72.7    28    2.8   190      8.0   853.3    0.00     483    67.3
 267    9:30   73.3    27    4.3   177      8.5   853.6    0.00     507    67.0
 267    9:40   73.8    26    3.5   182      9.2   853.7    0.00     533    66.9
 267    9:50   74.5    26    3.3   179      7.4   853.8    0.00     555    67.3
 267   10:00   75.4    25    3.3   184      8.4   854.0    0.00     576    66.8
 267   10:10   75.2    24    4.4   173     10.6   854.1    0.00     597    66.9
 267   10:20   76.1    24    3.7   174      8.4   854.1    0.00     617    67.2
 267   10:30   77.0    24    4.4   171      8.2   854.1    0.00     633    67.2
 267   10:40   78.3    22    4.1   172      8.6   854.1    0.00     647    67.3
 267   10:50   79.1    20    4.3   170      8.8   854.0    0.00     661    66.7
 267   11:00   79.8    20    4.2   171      8.2   854.0    0.00     675    67.2
 267   11:10   80.5    19    3.9   180     10.5   854.0    0.00     687    66.8
 267   11:20   81.5    17    4.4   166     10.2   854.1    0.00     694    67.4
 267   11:30   81.7    18    4.4   176      9.1   854.1    0.00     707    67.1
 267   11:40   82.1    16    4.9   169     10.4   854.1    0.00     713    67.3
 267   11:50   82.5    15    4.7   167     10.4   854.1    0.00     722    67.1
 267   12:00   83.4    15    3.9   169     12.4   854.0    0.00     723    67.1
 267   12:10   83.6    14    3.7   169      9.1   854.0    0.00     725    67.2
 267   12:20   83.8    13    3.7   167      6.3   854.0    0.00     727    67.4
 267   12:30   84.9    13    2.6   163      8.2   854.0    0.00     727    67.5
 267   12:40   85.4    12    4.3   151      9.6   854.0    0.00     726    67.6
 267   12:50   85.6    12    3.2   171      7.4   854.0    0.00     722    67.8
 267   13:00   86.8    12    1.9   180      6.7   854.0    0.00     720    68.0
 267   13:10   85.8    11    5.4   169     10.2   854.0    0.00     712    67.9
 267   13:20   85.2    11    3.8   162      8.5   853.9    0.00     707    67.9
 267   13:30   86.9    12    3.0   175      7.7   853.8    0.00     691    68.3
 267   13:40   85.9    10    7.2   158     12.0   853.8    0.00     685    68.5
 267   13:50   85.5    11    4.2   167      8.4   853.7    0.00     675    68.4
 267   14:00   87.0    10    3.7   150      7.6   853.5    0.00     657    68.5
 267   14:10   87.2    10    2.8    62      7.1   853.4    0.00     643    69.0
 267   14:20   86.7    10    3.1   135      8.4   853.4    0.00     623    68.8
 267   14:30   87.3    10    3.1   144      9.3   853.3    0.00     610    69.0
 267   14:40   87.5    10    4.5   147     10.9   853.3    0.00     593    69.2
 267   14:50   87.1    11    4.0   181      9.0   853.1    0.00     597    68.9
 267   15:00   86.6    10    5.5   163     11.3   853.0    0.00     479    69.2
 267   15:10   85.9    10    5.0   156     10.0   852.9    0.00     442    69.7
 267   15:20   86.5    10    4.2   148      7.2   852.7    0.00     501    69.4
 267   15:30   87.1    10    3.5   162      8.3   852.6    0.00     484    69.7
 267   15:40   87.4    10    3.2   156      8.0   852.6    0.00     453    69.7
 267   15:50   87.5     9    3.2   154      8.8   852.5    0.00     432    69.8
 267   16:00   87.0    10    3.2   160      6.9   852.4    0.00     406    70.2
 267   16:10   87.0    11    2.0   177      6.6   852.4    0.00     380    70.3
 267   16:20   85.6    10    2.1   169      5.6   852.3    0.00     286    70.2
 267   16:30   85.1    10    3.8   163      8.0   852.1    0.00     101    70.5
 267   16:40   84.5    11    3.1   169      7.2   851.8    0.00     173    70.4
 267   16:50   85.2    10    4.2   164      7.2   851.6    0.00     258    70.4
 267   17:00   85.5    10    3.4   148      7.5   851.5    0.00     228    70.7
 267   17:10   85.2    10    4.0   153      7.9   851.5    0.00     198    70.5
 267   17:20   84.5    10    3.6   154      5.9   851.4    0.00     109    70.4

Return to Milford, Utah graphs page.


Western Regional Climate Center,wrcc@dri.edu